createdAt,value
2017-08-01T00:01:48.436Z,23.50
2017-08-01T00:04:15.886Z,23.50
2017-08-01T00:06:43.472Z,23.40
2017-08-01T00:09:10.924Z,23.30
2017-08-01T00:11:38.480Z,23.30
2017-08-01T00:14:06.028Z,23.30
2017-08-01T00:16:33.469Z,23.30
2017-08-01T00:19:01.036Z,23.30
2017-08-01T00:21:28.476Z,23.30
2017-08-01T00:23:56.065Z,23.30
2017-08-01T00:26:23.609Z,23.40
2017-08-01T00:28:51.053Z,23.40
2017-08-01T00:31:18.520Z,23.50
2017-08-01T00:33:45.957Z,23.50
2017-08-01T00:36:13.445Z,23.50
2017-08-01T00:38:40.892Z,23.50
2017-08-01T00:41:08.343Z,23.50
2017-08-01T00:43:35.818Z,23.50
2017-08-01T00:46:03.277Z,23.40
2017-08-01T00:48:30.780Z,23.40
2017-08-01T00:50:58.246Z,23.40
2017-08-01T00:53:25.711Z,23.40
2017-08-01T00:55:53.135Z,23.40
2017-08-01T00:58:20.618Z,23.40
2017-08-01T01:00:48.069Z,23.30
2017-08-01T01:03:15.515Z,23.30
2017-08-01T01:05:43.019Z,23.30
2017-08-01T01:08:10.459Z,23.30
2017-08-01T01:10:37.900Z,23.30
2017-08-01T01:13:05.368Z,23.30
2017-08-01T01:15:32.972Z,23.30
2017-08-01T01:18:00.444Z,23.20
2017-08-01T01:20:27.897Z,23.10
2017-08-01T01:22:55.415Z,23.00
2017-08-01T01:25:22.889Z,23.00
2017-08-01T01:27:51.097Z,23.00
2017-08-01T01:30:18.575Z,23.00
2017-08-01T01:32:46.060Z,23.00
2017-08-01T01:35:13.506Z,22.90
2017-08-01T01:37:40.991Z,22.80
2017-08-01T01:40:08.528Z,22.70
2017-08-01T01:42:35.979Z,22.60
2017-08-01T01:45:03.462Z,22.70
2017-08-01T01:47:31.672Z,22.80
2017-08-01T01:49:59.159Z,22.80
2017-08-01T01:52:26.723Z,22.90
2017-08-01T01:54:54.179Z,22.90
2017-08-01T01:57:21.652Z,22.90
2017-08-01T01:59:49.091Z,23.00
2017-08-01T02:02:16.563Z,22.90
2017-08-01T02:04:44.008Z,23.00
2017-08-01T02:07:11.459Z,22.90
2017-08-01T02:09:39.018Z,23.00
2017-08-01T02:12:06.576Z,23.00
2017-08-01T02:14:34.016Z,23.00
2017-08-01T02:17:01.475Z,23.00
2017-08-01T02:19:28.939Z,23.00
2017-08-01T02:21:56.387Z,22.90
2017-08-01T02:24:23.863Z,22.90
2017-08-01T02:26:51.411Z,22.90
2017-08-01T02:29:18.863Z,22.90
2017-08-01T02:31:46.425Z,22.90
2017-08-01T02:34:13.868Z,22.80
2017-08-01T02:36:41.319Z,22.90
2017-08-01T02:39:08.789Z,22.90
2017-08-01T02:41:36.232Z,22.80
2017-08-01T02:44:03.671Z,22.80
2017-08-01T02:46:31.148Z,22.90
2017-08-01T02:48:58.591Z,22.90
2017-08-01T02:51:26.053Z,22.90
2017-08-01T02:53:53.539Z,22.90
2017-08-01T02:56:21.011Z,22.90
2017-08-01T02:58:48.463Z,22.90
2017-08-01T03:01:15.920Z,22.90
2017-08-01T03:03:43.455Z,22.90
2017-08-01T03:06:10.923Z,22.90
2017-08-01T03:08:38.367Z,22.90
2017-08-01T03:11:05.849Z,22.90
2017-08-01T03:13:33.316Z,22.90
2017-08-01T03:16:01.559Z,22.90
2017-08-01T03:18:29.008Z,22.90
2017-08-01T03:20:56.479Z,22.90
2017-08-01T03:23:23.927Z,22.80
2017-08-01T03:25:51.373Z,22.80
2017-08-01T03:28:18.832Z,22.80
2017-08-01T03:30:46.304Z,22.80
2017-08-01T03:33:13.755Z,22.80
2017-08-01T03:35:41.216Z,22.80
2017-08-01T03:38:08.697Z,22.80
2017-08-01T03:40:36.917Z,22.80
2017-08-01T03:43:04.380Z,22.80
2017-08-01T03:45:31.851Z,22.70
2017-08-01T03:47:59.299Z,22.70
2017-08-01T03:50:26.869Z,22.60
2017-08-01T03:52:54.425Z,22.60
2017-08-01T03:55:21.880Z,22.60
2017-08-01T03:57:49.352Z,22.60
2017-08-01T04:00:16.829Z,22.50
2017-08-01T04:02:45.037Z,22.60
2017-08-01T04:05:12.522Z,22.60
2017-08-01T04:07:40.082Z,22.60
2017-08-01T04:10:07.536Z,22.60
2017-08-01T04:12:35.007Z,22.60
2017-08-01T04:15:02.455Z,22.60
2017-08-01T04:17:29.947Z,22.60
2017-08-01T04:19:58.212Z,22.60
2017-08-01T04:22:25.761Z,22.60
2017-08-01T04:24:53.231Z,22.60
2017-08-01T04:27:21.443Z,22.60
2017-08-01T04:29:48.891Z,22.60
2017-08-01T04:32:16.391Z,22.60
2017-08-01T04:34:43.857Z,22.50
2017-08-01T04:37:11.303Z,22.50
2017-08-01T04:39:38.739Z,22.50
2017-08-01T04:42:06.308Z,22.60
2017-08-01T04:44:45.764Z,22.60
2017-08-01T04:47:13.216Z,22.50
2017-08-01T04:49:40.765Z,22.50
2017-08-01T04:52:08.239Z,22.40
2017-08-01T04:54:35.689Z,22.40
2017-08-01T04:57:03.123Z,22.30
2017-08-01T04:59:30.588Z,22.30
2017-08-01T05:01:58.055Z,22.20
2017-08-01T05:04:25.513Z,22.30
2017-08-01T05:06:52.951Z,22.20
2017-08-01T05:09:20.515Z,22.20
2017-08-01T05:11:48.067Z,22.20
2017-08-01T05:14:15.551Z,22.20
2017-08-01T05:16:43.800Z,22.30
2017-08-01T05:19:11.244Z,22.30
2017-08-01T05:21:38.711Z,22.30
2017-08-01T05:24:06.168Z,22.40
2017-08-01T05:26:33.597Z,22.40
2017-08-01T05:29:01.060Z,22.40
2017-08-01T05:31:28.649Z,22.50
2017-08-01T05:33:56.123Z,22.60
2017-08-01T05:36:24.344Z,22.70
2017-08-01T05:38:51.783Z,22.70
2017-08-01T05:41:19.295Z,22.70
2017-08-01T05:43:46.835Z,22.80
2017-08-01T05:46:14.319Z,22.70
2017-08-01T05:48:41.784Z,22.70
2017-08-01T05:51:09.220Z,22.70
2017-08-01T05:53:36.672Z,22.60
2017-08-01T05:56:04.196Z,22.60
2017-08-01T05:58:31.675Z,22.60
2017-08-01T06:00:59.143Z,22.70
2017-08-01T06:03:26.608Z,22.70
2017-08-01T06:05:54.091Z,22.70
2017-08-01T06:08:21.527Z,22.70
2017-08-01T06:10:49.773Z,22.80
2017-08-01T06:13:17.261Z,22.70
2017-08-01T06:15:45.480Z,22.70
2017-08-01T06:18:12.924Z,22.70
2017-08-01T06:20:40.386Z,22.70
2017-08-01T06:23:07.858Z,22.80
2017-08-01T06:25:35.303Z,22.80
2017-08-01T06:28:02.767Z,22.90
2017-08-01T06:30:30.245Z,22.90
2017-08-01T06:32:57.691Z,22.90
2017-08-01T06:35:25.264Z,22.90
2017-08-01T06:37:52.707Z,22.90
2017-08-01T06:40:20.181Z,23.00
2017-08-01T06:42:47.616Z,23.00
2017-08-01T06:45:15.092Z,23.00
2017-08-01T06:47:42.563Z,23.20
2017-08-01T06:50:10.007Z,23.30
2017-08-01T06:52:37.559Z,23.40
2017-08-01T06:55:05.123Z,23.50
2017-08-01T06:57:32.593Z,23.50
2017-08-01T07:00:00.123Z,23.60
2017-08-01T07:02:27.608Z,23.70
2017-08-01T07:04:55.041Z,23.70
2017-08-01T07:07:22.479Z,23.60
2017-08-01T07:09:50.048Z,23.60
2017-08-01T07:12:17.507Z,23.60
2017-08-01T07:14:44.980Z,23.70
2017-08-01T07:17:12.427Z,23.80
2017-08-01T07:19:39.891Z,23.90
2017-08-01T07:22:07.436Z,24.00
2017-08-01T07:24:34.896Z,24.10
2017-08-01T07:27:02.351Z,24.20
2017-08-01T07:29:29.878Z,24.20
2017-08-01T07:31:57.361Z,24.20
2017-08-01T07:34:24.817Z,24.20
2017-08-01T07:36:52.311Z,24.20
2017-08-01T07:39:20.566Z,24.30
2017-08-01T07:41:47.996Z,24.30
2017-08-01T07:44:15.463Z,24.40
2017-08-01T07:46:42.904Z,24.40
2017-08-01T07:49:10.370Z,24.50
2017-08-01T07:51:37.819Z,24.50
2017-08-01T07:54:05.388Z,24.50
2017-08-01T07:56:32.828Z,24.60
2017-08-01T07:59:00.310Z,24.60
2017-08-01T08:01:27.800Z,24.70
2017-08-01T08:03:56.019Z,24.80
2017-08-01T08:06:23.480Z,24.80
2017-08-01T08:08:50.996Z,24.90
2017-08-01T08:11:18.456Z,25.00
2017-08-01T08:13:45.981Z,25.00
2017-08-01T08:16:14.211Z,25.10
2017-08-01T08:18:41.683Z,25.10
2017-08-01T08:21:09.170Z,25.20
2017-08-01T08:23:37.384Z,25.40
2017-08-01T08:26:04.827Z,25.40
2017-08-01T08:28:32.301Z,25.50
2017-08-01T08:30:59.743Z,25.60
2017-08-01T08:33:27.236Z,25.60
2017-08-01T08:35:54.685Z,25.70
2017-08-01T08:38:22.151Z,25.70
2017-08-01T08:40:49.622Z,25.80
2017-08-01T08:43:17.060Z,25.80
2017-08-01T08:45:44.543Z,25.80
2017-08-01T08:48:11.992Z,25.90
2017-08-01T08:50:39.437Z,25.90
2017-08-01T08:53:06.910Z,25.90
2017-08-01T08:55:34.450Z,26.00
2017-08-01T08:58:01.936Z,26.10
2017-08-01T09:00:30.139Z,26.20
2017-08-01T09:02:57.635Z,26.20
2017-08-01T09:05:25.113Z,26.30
2017-08-01T09:07:52.564Z,26.40
2017-08-01T09:10:20.044Z,26.50
2017-08-01T09:12:48.252Z,26.70
2017-08-01T09:15:15.701Z,26.70
2017-08-01T09:17:43.167Z,26.80
2017-08-01T09:20:10.625Z,26.90
2017-08-01T09:22:38.107Z,27.00
2017-08-01T09:25:05.566Z,27.00
2017-08-01T09:27:33.019Z,27.10
2017-08-01T09:30:00.495Z,27.20
2017-08-01T09:32:28.041Z,27.30
2017-08-01T09:34:55.518Z,27.30
2017-08-01T09:37:23.777Z,27.50
2017-08-01T09:39:51.225Z,27.50
2017-08-01T09:42:18.709Z,27.60
2017-08-01T09:44:46.958Z,27.80
2017-08-01T09:47:14.431Z,27.80
2017-08-01T09:49:42.635Z,28.00
2017-08-01T09:52:10.139Z,28.00
2017-08-01T09:54:37.585Z,28.10
2017-08-01T09:57:05.040Z,28.10
2017-08-01T09:59:32.507Z,28.20
2017-08-01T10:01:59.944Z,28.10
2017-08-01T10:04:27.423Z,28.20
2017-08-01T10:06:54.880Z,28.30
2017-08-01T10:09:22.324Z,28.40
2017-08-01T10:11:49.789Z,28.40
2017-08-01T10:14:17.251Z,28.50
2017-08-01T10:16:44.733Z,28.60
2017-08-01T10:19:12.992Z,28.80
2017-08-01T10:21:40.447Z,28.80
2017-08-01T10:24:07.912Z,28.90
2017-08-01T10:26:36.129Z,29.00
2017-08-01T10:29:03.611Z,29.00
2017-08-01T10:31:31.073Z,29.10
2017-08-01T10:33:58.515Z,29.20
2017-08-01T10:36:26.082Z,29.20
2017-08-01T10:38:53.647Z,29.30
2017-08-01T10:41:21.106Z,29.40
2017-08-01T10:43:48.572Z,29.50
2017-08-01T10:46:16.015Z,29.70
2017-08-01T10:48:43.516Z,29.80
2017-08-01T10:51:10.962Z,29.90
2017-08-01T10:53:39.300Z,30.20
2017-08-01T10:56:06.764Z,30.20
2017-08-01T10:58:34.213Z,30.30
2017-08-01T11:01:01.687Z,30.40
2017-08-01T11:03:29.125Z,30.60
2017-08-01T11:05:56.594Z,30.70
2017-08-01T11:08:24.059Z,30.80
2017-08-01T11:10:51.591Z,30.90
2017-08-01T11:13:19.031Z,31.00
2017-08-01T11:15:46.480Z,30.90
2017-08-01T11:18:13.989Z,30.90
2017-08-01T11:20:41.428Z,31.00
2017-08-01T11:23:08.859Z,31.10
2017-08-01T11:25:36.332Z,31.10
2017-08-01T11:28:03.771Z,31.20
2017-08-01T11:30:31.256Z,31.20
2017-08-01T11:32:58.699Z,31.20
2017-08-01T11:35:26.153Z,31.30
2017-08-01T11:37:53.720Z,31.30
2017-08-01T11:40:21.173Z,31.40
2017-08-01T11:42:48.664Z,31.60
2017-08-01T11:45:16.899Z,32.10
2017-08-01T11:47:44.362Z,32.00
2017-08-01T11:50:11.915Z,32.20
2017-08-01T11:52:39.363Z,32.40
2017-08-01T11:55:06.835Z,32.60
2017-08-01T11:57:34.300Z,32.80
2017-08-01T12:00:01.739Z,32.90
2017-08-01T12:02:29.198Z,33.00
2017-08-01T12:04:56.656Z,33.20
2017-08-01T12:07:24.124Z,33.30
2017-08-01T12:09:51.568Z,33.30
2017-08-01T12:12:19.076Z,33.30
2017-08-01T12:14:46.523Z,33.50
2017-08-01T12:17:13.995Z,33.50
2017-08-01T12:19:41.515Z,33.60
2017-08-01T12:22:09.750Z,33.90
2017-08-01T12:24:37.220Z,33.90
2017-08-01T12:27:04.677Z,34.10
2017-08-01T12:29:32.243Z,34.20
2017-08-01T12:31:59.803Z,34.20
2017-08-01T12:34:27.276Z,34.30
2017-08-01T12:36:55.538Z,34.50
2017-08-01T12:39:23.013Z,34.50
2017-08-01T12:41:51.223Z,34.70
2017-08-01T12:44:18.725Z,34.60
2017-08-01T12:46:46.191Z,34.80
2017-08-01T12:49:14.403Z,34.90
2017-08-01T12:51:41.860Z,34.90
2017-08-01T12:54:09.394Z,34.80
2017-08-01T12:56:37.644Z,35.10
2017-08-01T12:59:05.088Z,35.00
2017-08-01T13:01:32.570Z,35.20
2017-08-01T13:04:00.023Z,35.30
2017-08-01T13:06:27.633Z,35.40
2017-08-01T13:08:55.135Z,35.50
2017-08-01T13:11:22.605Z,35.50
2017-08-01T13:13:50.841Z,35.30
2017-08-01T13:16:18.324Z,35.30
2017-08-01T13:18:45.859Z,35.30
2017-08-01T13:21:13.428Z,35.20
2017-08-01T13:23:40.897Z,35.00
2017-08-01T13:26:08.339Z,34.80
2017-08-01T13:28:35.816Z,34.80
2017-08-01T13:31:03.270Z,34.70
2017-08-01T13:33:31.528Z,35.00
2017-08-01T13:35:58.973Z,34.90
2017-08-01T13:38:26.431Z,35.20
2017-08-01T13:40:53.903Z,35.30
2017-08-01T13:43:21.448Z,35.40
2017-08-01T13:45:48.908Z,35.60
2017-08-01T13:48:16.357Z,35.70
2017-08-01T13:50:43.828Z,35.70
2017-08-01T13:53:11.292Z,35.80
2017-08-01T13:55:39.520Z,36.00
2017-08-01T13:58:07.028Z,35.90
2017-08-01T14:00:34.560Z,35.80
2017-08-01T14:03:02.036Z,35.50
2017-08-01T14:05:29.509Z,35.20
2017-08-01T14:07:57.758Z,34.80
2017-08-01T14:10:25.251Z,34.80
2017-08-01T14:12:52.691Z,34.60
2017-08-01T14:15:20.907Z,34.30
2017-08-01T14:17:48.399Z,34.20
2017-08-01T14:20:15.847Z,34.10
2017-08-01T14:22:43.368Z,33.90
2017-08-01T14:25:10.859Z,33.70
2017-08-01T14:27:38.439Z,33.60
2017-08-01T14:30:05.883Z,33.50
2017-08-01T14:32:33.340Z,33.60
2017-08-01T14:35:00.797Z,33.70
2017-08-01T14:37:28.249Z,33.70
2017-08-01T14:39:55.707Z,33.70
2017-08-01T14:42:23.193Z,33.80
2017-08-01T14:44:51.396Z,33.60
2017-08-01T14:47:18.860Z,33.60
2017-08-01T14:49:46.354Z,33.30
2017-08-01T14:52:13.833Z,33.00
2017-08-01T14:54:42.089Z,32.70
2017-08-01T14:57:09.532Z,32.70
2017-08-01T14:59:37.166Z,32.50
2017-08-01T15:02:04.612Z,32.20
2017-08-01T15:04:32.110Z,31.90
2017-08-01T15:06:59.608Z,31.60
2017-08-01T15:09:27.837Z,31.10
2017-08-01T15:11:55.304Z,31.00
2017-08-01T15:14:22.853Z,30.90
2017-08-01T15:16:50.336Z,30.60
2017-08-01T15:19:17.872Z,30.40
2017-08-01T15:21:45.321Z,30.20
2017-08-01T15:24:12.783Z,30.10
2017-08-01T15:26:40.348Z,29.90
2017-08-01T15:29:07.804Z,29.70
2017-08-01T15:31:35.302Z,29.60
2017-08-01T15:34:02.762Z,29.50
2017-08-01T15:36:30.245Z,29.40
2017-08-01T15:38:57.739Z,29.30
2017-08-01T15:41:25.191Z,29.30
2017-08-01T15:43:52.744Z,29.20
2017-08-01T15:46:20.203Z,29.10
2017-08-01T15:48:47.775Z,29.00
2017-08-01T15:51:16.024Z,28.80
2017-08-01T15:53:43.475Z,28.80
2017-08-01T15:56:10.975Z,28.70
2017-08-01T15:58:38.416Z,28.70
2017-08-01T16:01:05.943Z,28.70
2017-08-01T16:03:33.459Z,28.80
2017-08-01T16:06:01.660Z,28.90
2017-08-01T16:08:29.167Z,28.90
2017-08-01T16:10:57.377Z,29.10
2017-08-01T16:13:24.888Z,29.10
2017-08-01T16:15:52.368Z,29.00
2017-08-01T16:18:19.895Z,29.00
2017-08-01T16:20:47.369Z,29.00
2017-08-01T16:23:15.619Z,28.80
2017-08-01T16:25:43.070Z,28.80
2017-08-01T16:28:10.552Z,28.80
2017-08-01T16:30:37.976Z,28.90
2017-08-01T16:33:05.452Z,29.00
2017-08-01T16:35:32.915Z,29.00
2017-08-01T16:38:00.410Z,29.00
2017-08-01T16:40:27.868Z,29.00
2017-08-01T16:42:55.300Z,28.90
2017-08-01T16:45:23.532Z,28.80
2017-08-01T16:47:50.984Z,28.70
2017-08-01T16:50:18.459Z,28.70
2017-08-01T16:52:45.931Z,28.60
2017-08-01T16:55:14.177Z,28.50
2017-08-01T16:57:41.632Z,28.40
2017-08-01T17:00:09.089Z,28.50
2017-08-01T17:02:36.575Z,28.50
2017-08-01T17:05:04.786Z,28.50
2017-08-01T17:07:32.286Z,28.50
2017-08-01T17:09:59.741Z,28.50
2017-08-01T17:12:27.192Z,28.50
2017-08-01T17:14:54.672Z,28.50
2017-08-01T17:17:22.113Z,28.50
2017-08-01T17:19:49.595Z,28.40
2017-08-01T17:22:17.815Z,28.30
2017-08-01T17:24:45.267Z,28.30
2017-08-01T17:27:12.746Z,28.20
2017-08-01T17:29:40.191Z,28.00
2017-08-01T17:32:07.691Z,27.90
2017-08-01T17:34:35.973Z,27.80
2017-08-01T17:37:04.191Z,27.80
2017-08-01T17:39:31.776Z,27.80
2017-08-01T17:41:59.243Z,27.80
2017-08-01T17:44:26.709Z,27.80
2017-08-01T17:46:54.964Z,27.80
2017-08-01T17:49:22.439Z,27.80
2017-08-01T17:51:50.664Z,27.70
2017-08-01T17:54:18.156Z,27.70
2017-08-01T17:56:45.591Z,27.60
2017-08-01T17:59:13.081Z,27.50
2017-08-01T18:01:41.332Z,27.10
2017-08-01T18:04:08.785Z,27.10
2017-08-01T18:06:36.282Z,26.90
2017-08-01T18:09:04.498Z,26.70
2017-08-01T18:11:31.964Z,26.70
2017-08-01T18:13:59.435Z,26.60
2017-08-01T18:16:26.932Z,26.40
2017-08-01T18:18:54.476Z,26.30
2017-08-01T18:21:22.804Z,26.10
2017-08-01T18:23:50.282Z,26.10
2017-08-01T18:26:17.836Z,26.00
2017-08-01T18:28:45.369Z,26.00
2017-08-01T18:31:12.893Z,25.90
2017-08-01T18:33:41.273Z,25.80
2017-08-01T18:36:09.123Z,25.80
2017-08-01T18:38:36.931Z,25.70
2017-08-01T18:41:04.589Z,25.60
2017-08-01T18:43:32.452Z,25.50
2017-08-01T18:46:00.130Z,25.20
2017-08-01T18:48:27.734Z,25.10
2017-08-01T18:50:56.358Z,24.70
2017-08-01T18:53:24.223Z,24.70
2017-08-01T18:55:52.089Z,24.80
2017-08-01T18:58:19.957Z,24.90
2017-08-01T19:00:48.640Z,24.90
2017-08-01T19:03:16.720Z,24.90
2017-08-01T19:05:44.678Z,24.70
2017-08-01T19:08:12.544Z,24.50
2017-08-01T19:10:40.426Z,24.50
2017-08-01T19:13:08.380Z,24.50
2017-08-01T19:15:36.243Z,24.40
2017-08-01T19:18:04.221Z,24.30
2017-08-01T19:20:32.077Z,24.30
2017-08-01T19:22:59.943Z,24.40
2017-08-01T19:25:27.894Z,24.30
2017-08-01T19:27:55.779Z,24.30
2017-08-01T19:30:23.644Z,24.20
2017-08-01T19:32:51.517Z,24.20
2017-08-01T19:35:19.373Z,24.20
2017-08-01T19:37:47.238Z,24.10
2017-08-01T19:40:15.109Z,24.20
2017-08-01T19:42:42.972Z,24.30
2017-08-01T19:45:11.050Z,24.30
2017-08-01T19:47:38.949Z,24.40
2017-08-01T19:50:06.775Z,24.30
2017-08-01T19:52:34.740Z,24.20
2017-08-01T19:55:02.709Z,24.30
2017-08-01T19:57:30.784Z,24.30
2017-08-01T19:59:58.649Z,24.30
2017-08-01T20:02:26.610Z,24.30
2017-08-01T20:04:54.477Z,24.20
2017-08-01T20:07:22.348Z,24.10
2017-08-01T20:09:50.208Z,24.00
2017-08-01T20:12:18.073Z,23.90
2017-08-01T20:14:45.946Z,23.80
2017-08-01T20:17:13.909Z,23.70
2017-08-01T20:19:41.773Z,23.70
2017-08-01T20:22:09.348Z,23.70
2017-08-01T20:24:37.106Z,23.80
2017-08-01T20:27:04.959Z,23.90
2017-08-01T20:29:32.447Z,24.00
2017-08-01T20:31:59.935Z,24.00
2017-08-01T20:34:28.221Z,24.10
2017-08-01T20:36:56.453Z,24.00
2017-08-01T20:39:23.920Z,24.00
2017-08-01T20:41:51.401Z,24.00
2017-08-01T20:44:19.660Z,24.00
2017-08-01T20:46:47.095Z,24.00
2017-08-01T20:49:14.576Z,23.70
2017-08-01T20:51:42.051Z,23.60
2017-08-01T20:54:09.512Z,23.50
2017-08-01T20:56:37.015Z,23.30
2017-08-01T20:59:04.522Z,23.10
2017-08-01T21:01:32.737Z,22.90
2017-08-01T21:04:00.216Z,22.90
2017-08-01T21:06:27.785Z,23.00
2017-08-01T21:08:55.360Z,23.00
2017-08-01T21:11:23.584Z,23.10
2017-08-01T21:13:51.048Z,23.10
2017-08-01T21:16:18.615Z,23.10
2017-08-01T21:18:46.145Z,23.20
2017-08-01T21:21:13.592Z,23.20
2017-08-01T21:23:41.043Z,23.20
2017-08-01T21:26:08.524Z,23.20
2017-08-01T21:28:35.972Z,23.00
2017-08-01T21:31:03.572Z,23.00
2017-08-01T21:33:31.124Z,23.10
2017-08-01T21:35:58.588Z,23.20
2017-08-01T21:38:26.631Z,23.20
2017-08-01T21:40:54.088Z,23.20
2017-08-01T21:43:21.620Z,23.00
2017-08-01T21:45:49.085Z,23.00
2017-08-01T21:48:16.541Z,23.00
2017-08-01T21:50:44.007Z,22.90
2017-08-01T21:53:11.497Z,23.00
2017-08-01T21:55:38.977Z,23.10
2017-08-01T21:58:07.196Z,23.30
2017-08-01T22:00:34.939Z,23.30
2017-08-01T22:03:02.431Z,23.30
2017-08-01T22:05:29.879Z,23.30
2017-08-01T22:07:57.344Z,23.30
2017-08-01T22:10:24.829Z,23.30
2017-08-01T22:12:53.049Z,23.20
2017-08-01T22:15:20.562Z,23.20
2017-08-01T22:17:48.095Z,23.20
2017-08-01T22:20:15.579Z,23.30
2017-08-01T22:22:43.068Z,23.30
2017-08-01T22:25:10.529Z,23.20
2017-08-01T22:27:38.019Z,23.20
2017-08-01T22:30:05.508Z,23.30
2017-08-01T22:32:33.724Z,23.20
2017-08-01T22:35:01.309Z,23.20
2017-08-01T22:37:28.785Z,23.20
2017-08-01T22:39:57.018Z,23.30
2017-08-01T22:42:24.507Z,23.30
2017-08-01T22:44:51.961Z,23.40
2017-08-01T22:47:19.415Z,23.40
2017-08-01T22:49:46.971Z,23.50
2017-08-01T22:52:14.424Z,23.50
2017-08-01T22:54:41.941Z,23.60
2017-08-01T22:57:09.384Z,23.70
2017-08-01T22:59:36.884Z,23.70
2017-08-01T23:02:04.365Z,23.80
2017-08-01T23:04:31.837Z,23.70
2017-08-01T23:07:00.081Z,23.40
2017-08-01T23:09:27.527Z,23.40
2017-08-01T23:11:55.000Z,23.40
2017-08-01T23:14:22.455Z,23.50
2017-08-01T23:16:49.934Z,23.40
2017-08-01T23:19:18.170Z,23.50
2017-08-01T23:21:45.635Z,23.40
2017-08-01T23:24:13.200Z,23.40
2017-08-01T23:26:40.659Z,23.30
2017-08-01T23:29:08.109Z,23.20
2017-08-01T23:31:35.577Z,23.30
2017-08-01T23:34:03.019Z,23.30
2017-08-01T23:36:30.500Z,23.30
2017-08-01T23:38:58.748Z,23.30
2017-08-01T23:41:26.201Z,23.30
2017-08-01T23:43:53.672Z,23.30
2017-08-01T23:46:21.129Z,23.30
2017-08-01T23:48:48.677Z,23.30
2017-08-01T23:51:16.145Z,23.30
2017-08-01T23:53:43.605Z,23.20
2017-08-01T23:56:11.085Z,23.30
2017-08-01T23:58:38.543Z,23.30
